sensor_id;sensor_type;location;lat;lon;timestamp;pressure;altitude;pressure_sealevel;temperature;humidity
56928;BME280;60850;52.502;13.426;2022-12-16T00:01:03;100720.16;;;-4.60;100.00
56928;BME280;60850;52.502;13.426;2022-12-16T00:03:31;100722.78;;;-4.59;100.00
56928;BME280;60850;52.502;13.426;2022-12-16T00:05:58;100724.47;;;-4.61;100.00
56928;BME280;60850;52.502;13.426;2022-12-16T00:08:31;100721.91;;;-4.59;100.00
56928;BME280;60850;52.502;13.426;2022-12-16T00:10:59;100727.03;;;-4.62;100.00
56928;BME280;60850;52.502;13.426;2022-12-16T00:13:27;100730.31;;;-4.43;100.00
56928;BME280;60850;52.502;13.426;2022-12-16T00:15:55;100730.78;;;-4.29;100.00
56928;BME280;60850;52.502;13.426;2022-12-16T00:18:23;100725.94;;;-4.17;100.00
56928;BME280;60850;52.502;13.426;2022-12-16T00:20:52;100734.28;;;-4.01;100.00
56928;BME280;60850;52.502;13.426;2022-12-16T00:23:21;100730.19;;;-3.93;100.00
56928;BME280;60850;52.502;13.426;2022-12-16T00:25:49;100731.72;;;-4.00;100.00
56928;BME280;60850;52.502;13.426;2022-12-16T00:28:18;100741.28;;;-3.99;100.00
56928;BME280;60850;52.502;13.426;2022-12-16T00:30:48;100740.41;;;-3.99;100.00
56928;BME280;60850;52.502;13.426;2022-12-16T00:33:16;100742.00;;;-4.03;100.00
56928;BME280;60850;52.502;13.426;2022-12-16T00:35:45;100746.44;;;-4.00;100.00
56928;BME280;60850;52.502;13.426;2022-12-16T00:38:12;100751.50;;;-4.05;100.00
56928;BME280;60850;52.502;13.426;2022-12-16T00:40:40;100759.25;;;-4.06;100.00
56928;BME280;60850;52.502;13.426;2022-12-16T00:43:09;100762.53;;;-4.12;100.00
56928;BME280;60850;52.502;13.426;2022-12-16T00:45:36;100763.97;;;-4.22;100.00
56928;BME280;60850;52.502;13.426;2022-12-16T00:48:04;100771.19;;;-4.38;100.00
56928;BME280;60850;52.502;13.426;2022-12-16T00:50:31;100769.84;;;-4.53;100.00
56928;BME280;60850;52.502;13.426;2022-12-16T00:52:59;100770.66;;;-4.54;100.00
56928;BME280;60850;52.502;13.426;2022-12-16T00:55:26;100770.50;;;-4.58;100.00
56928;BME280;60850;52.502;13.426;2022-12-16T00:57:53;100772.91;;;-4.64;100.00
56928;BME280;60850;52.502;13.426;2022-12-16T01:00:21;100768.38;;;-4.94;100.00
56928;BME280;60850;52.502;13.426;2022-12-16T01:02:50;100762.66;;;-5.08;100.00
56928;BME280;60850;52.502;13.426;2022-12-16T01:05:19;100760.66;;;-5.15;100.00
56928;BME280;60850;52.502;13.426;2022-12-16T01:07:46;100758.75;;;-5.20;100.00
56928;BME280;60850;52.502;13.426;2022-12-16T01:10:14;100760.09;;;-5.30;100.00
56928;BME280;60850;52.502;13.426;2022-12-16T01:12:41;100754.53;;;-5.17;100.00
56928;BME280;60850;52.502;13.426;2022-12-16T01:15:09;100752.44;;;-5.03;100.00
56928;BME280;60850;52.502;13.426;2022-12-16T01:17:39;100760.44;;;-4.73;100.00
56928;BME280;60850;52.502;13.426;2022-12-16T01:20:08;100766.25;;;-4.56;100.00
56928;BME280;60850;52.502;13.426;2022-12-16T01:22:35;100763.16;;;-4.45;100.00
56928;BME280;60850;52.502;13.426;2022-12-16T01:25:03;100762.53;;;-4.37;100.00
56928;BME280;60850;52.502;13.426;2022-12-16T01:27:30;100768.81;;;-4.58;100.00
56928;BME280;60850;52.502;13.426;2022-12-16T01:29:57;100767.09;;;-4.57;100.00
56928;BME280;60850;52.502;13.426;2022-12-16T01:32:25;100771.41;;;-4.58;100.00
56928;BME280;60850;52.502;13.426;2022-12-16T01:34:53;100771.50;;;-4.55;100.00
56928;BME280;60850;52.502;13.426;2022-12-16T01:37:21;100766.72;;;-4.43;100.00
56928;BME280;60850;52.502;13.426;2022-12-16T01:39:49;100768.13;;;-4.52;100.00
56928;BME280;60850;52.502;13.426;2022-12-16T01:42:18;100762.81;;;-4.55;100.00
56928;BME280;60850;52.502;13.426;2022-12-16T01:44:47;100772.13;;;-4.62;100.00
56928;BME280;60850;52.502;13.426;2022-12-16T01:47:16;100768.81;;;-4.58;100.00
56928;BME280;60850;52.502;13.426;2022-12-16T01:49:49;100767.09;;;-4.57;100.00
56928;BME280;60850;52.502;13.426;2022-12-16T01:52:21;100767.59;;;-4.67;100.00
56928;BME280;60850;52.502;13.426;2022-12-16T01:54:52;100760.22;;;-4.79;100.00
56928;BME280;60850;52.502;13.426;2022-12-16T01:57:26;100752.34;;;-4.82;100.00
56928;BME280;60850;52.502;13.426;2022-12-16T01:59:56;100762.03;;;-4.78;100.00
56928;BME280;60850;52.502;13.426;2022-12-16T02:02:23;100763.56;;;-4.83;100.00
56928;BME280;60850;52.502;13.426;2022-12-16T02:04:51;100754.97;;;-4.81;100.00
56928;BME280;60850;52.502;13.426;2022-12-16T02:07:39;100761.00;;;-4.82;100.00
56928;BME280;60850;52.502;13.426;2022-12-16T02:10:07;100762.13;;;-4.75;100.00
56928;BME280;60850;52.502;13.426;2022-12-16T02:12:43;100760.44;;;-4.73;100.00
56928;BME280;60850;52.502;13.426;2022-12-16T02:15:32;100758.53;;;-4.79;100.00
56928;BME280;60850;52.502;13.426;2022-12-16T02:18:08;100758.38;;;-4.83;100.00
56928;BME280;60850;52.502;13.426;2022-12-16T02:21:02;100759.81;;;-4.91;100.00
56928;BME280;60850;52.502;13.426;2022-12-16T02:24:02;100761.81;;;-4.84;100.00
56928;BME280;60850;52.502;13.426;2022-12-16T02:26:44;100754.66;;;-4.90;100.00
56928;BME280;60850;52.502;13.426;2022-12-16T02:29:35;100763.75;;;-4.79;100.00
56928;BME280;60850;52.502;13.426;2022-12-16T02:32:12;100760.78;;;-4.88;100.00
56928;BME280;60850;52.502;13.426;2022-12-16T02:34:51;100753.50;;;-4.98;100.00
56928;BME280;60850;52.502;13.426;2022-12-16T02:37:31;100759.31;;;-5.05;100.00
56928;BME280;60850;52.502;13.426;2022-12-16T02:40:06;100755.59;;;-5.12;100.00
56928;BME280;60850;52.502;13.426;2022-12-16T02:42:43;100755.78;;;-5.07;100.00
56928;BME280;60850;52.502;13.426;2022-12-16T02:45:14;100749.06;;;-5.01;100.00
56928;BME280;60850;52.502;13.426;2022-12-16T02:47:44;100744.88;;;-4.97;100.00
56928;BME280;60850;52.502;13.426;2022-12-16T02:50:17;100744.81;;;-4.99;100.00
56928;BME280;60850;52.502;13.426;2022-12-16T02:52:45;100740.25;;;-5.06;100.00
56928;BME280;60850;52.502;13.426;2022-12-16T02:55:13;100741.00;;;-5.08;100.00
56928;BME280;60850;52.502;13.426;2022-12-16T02:57:58;100738.38;;;-5.08;100.00
56928;BME280;60850;52.502;13.426;2022-12-16T03:00:35;100738.13;;;-5.16;100.00
56928;BME280;60850;52.502;13.426;2022-12-16T03:03:11;100742.09;;;-5.26;100.00
56928;BME280;60850;52.502;13.426;2022-12-16T03:05:44;100751.78;;;-5.21;100.00
56928;BME280;60850;52.502;13.426;2022-12-16T03:08:16;100740.38;;;-5.25;100.00
56928;BME280;60850;52.502;13.426;2022-12-16T03:10:56;100744.53;;;-5.30;100.00
56928;BME280;60850;52.502;13.426;2022-12-16T03:13:26;100741.59;;;-5.39;100.00
56928;BME280;60850;52.502;13.426;2022-12-16T03:15:57;100736.06;;;-5.48;100.00
56928;BME280;60850;52.502;13.426;2022-12-16T03:18:28;100744.44;;;-5.56;100.00
56928;BME280;60850;52.502;13.426;2022-12-16T03:20:58;100746.91;;;-5.59;100.00
56928;BME280;60850;52.502;13.426;2022-12-16T03:23:30;100741.16;;;-5.50;100.00
56928;BME280;60850;52.502;13.426;2022-12-16T03:26:02;100746.59;;;-5.44;100.00
56928;BME280;60850;52.502;13.426;2022-12-16T03:28:41;100739.78;;;-5.42;100.00
56928;BME280;60850;52.502;13.426;2022-12-16T03:31:16;100735.28;;;-5.46;100.00
56928;BME280;60850;52.502;13.426;2022-12-16T03:33:51;100729.63;;;-5.58;100.00
56928;BME280;60850;52.502;13.426;2022-12-16T03:36:24;100724.56;;;-5.55;100.00
56928;BME280;60850;52.502;13.426;2022-12-16T03:38:53;100731.78;;;-5.46;100.00
56928;BME280;60850;52.502;13.426;2022-12-16T03:41:23;100725.78;;;-5.45;100.00
56928;BME280;60850;52.502;13.426;2022-12-16T03:43:51;100724.94;;;-5.44;100.00
56928;BME280;60850;52.502;13.426;2022-12-16T03:46:18;100724.34;;;-5.37;100.00
56928;BME280;60850;52.502;13.426;2022-12-16T03:48:48;100714.00;;;-5.36;100.00
56928;BME280;60850;52.502;13.426;2022-12-16T03:51:16;100717.59;;;-5.32;100.00
56928;BME280;60850;52.502;13.426;2022-12-16T03:53:43;100715.06;;;-5.31;100.00
56928;BME280;60850;52.502;13.426;2022-12-16T03:56:11;100715.94;;;-5.30;100.00
56928;BME280;60850;52.502;13.426;2022-12-16T03:58:38;100718.44;;;-5.33;100.00
56928;BME280;60850;52.502;13.426;2022-12-16T04:01:06;100726.06;;;-5.38;100.00
56928;BME280;60850;52.502;13.426;2022-12-16T04:03:34;100715.78;;;-5.35;100.00
56928;BME280;60850;52.502;13.426;2022-12-16T04:06:02;100717.66;;;-5.31;100.00
56928;BME280;60850;52.502;13.426;2022-12-16T04:08:29;100721.91;;;-5.33;100.00
56928;BME280;60850;52.502;13.426;2022-12-16T04:10:57;100736.63;;;-5.33;100.00
56928;BME280;60850;52.502;13.426;2022-12-16T04:13:41;100727.13;;;-5.33;100.00
56928;BME280;60850;52.502;13.426;2022-12-16T04:16:28;100731.53;;;-5.30;100.00
56928;BME280;60850;52.502;13.426;2022-12-16T04:19:22;100733.47;;;-5.25;100.00
56928;BME280;60850;52.502;13.426;2022-12-16T04:22:11;100729.16;;;-5.24;100.00
56928;BME280;60850;52.502;13.426;2022-12-16T04:24:57;100728.28;;;-5.25;100.00
56928;BME280;60850;52.502;13.426;2022-12-16T04:27:24;100738.63;;;-5.26;100.00
56928;BME280;60850;52.502;13.426;2022-12-16T04:29:52;100738.84;;;-5.20;100.00
56928;BME280;60850;52.502;13.426;2022-12-16T04:32:37;100735.28;;;-5.22;100.00
56928;BME280;60850;52.502;13.426;2022-12-16T04:35:21;100742.28;;;-5.21;100.00
56928;BME280;60850;52.502;13.426;2022-12-16T04:38:07;100745.81;;;-5.19;100.00
56928;BME280;60850;52.502;13.426;2022-12-16T04:40:52;100744.06;;;-5.20;100.00
56928;BME280;60850;52.502;13.426;2022-12-16T04:43:37;100757.94;;;-5.19;100.00
56928;BME280;60850;52.502;13.426;2022-12-16T04:46:21;100752.59;;;-5.22;100.00
56928;BME280;60850;52.502;13.426;2022-12-16T04:49:06;100758.81;;;-5.19;100.00
56928;BME280;60850;52.502;13.426;2022-12-16T04:51:50;100759.00;;;-5.14;100.00
56928;BME280;60850;52.502;13.426;2022-12-16T04:54:36;100755.88;;;-5.04;100.00
56928;BME280;60850;52.502;13.426;2022-12-16T04:57:21;100758.47;;;-5.04;100.00
56928;BME280;60850;52.502;13.426;2022-12-16T05:00:07;100754.88;;;-5.08;100.00
56928;BME280;60850;52.502;13.426;2022-12-16T05:05:28;100766.94;;;-5.10;100.00
56928;BME280;60850;52.502;13.426;2022-12-16T05:08:12;100763.06;;;-5.21;100.00
56928;BME280;60850;52.502;13.426;2022-12-16T05:10:57;100767.06;;;-5.29;100.00
56928;BME280;60850;52.502;13.426;2022-12-16T05:13:57;100770.41;;;-5.33;100.00
56928;BME280;60850;52.502;13.426;2022-12-16T05:16:41;100766.56;;;-5.20;100.00
56928;BME280;60850;52.502;13.426;2022-12-16T05:19:25;100760.59;;;-5.40;100.00
56928;BME280;60850;52.502;13.426;2022-12-16T05:22:09;100772.03;;;-5.58;100.00
56928;BME280;60850;52.502;13.426;2022-12-16T05:24:54;100776.44;;;-5.57;100.00
56928;BME280;60850;52.502;13.426;2022-12-16T05:27:49;100783.16;;;-5.62;100.00
56928;BME280;60850;52.502;13.426;2022-12-16T05:30:34;100775.53;;;-5.57;100.00
56928;BME280;60850;52.502;13.426;2022-12-16T05:33:18;100775.63;;;-5.56;100.00
56928;BME280;60850;52.502;13.426;2022-12-16T05:36:03;100780.81;;;-5.56;100.00
56928;BME280;60850;52.502;13.426;2022-12-16T05:38:48;100780.06;;;-5.52;100.00
56928;BME280;60850;52.502;13.426;2022-12-16T05:41:32;100781.75;;;-5.54;100.00
56928;BME280;60850;52.502;13.426;2022-12-16T05:44:18;100776.66;;;-5.50;100.00
56928;BME280;60850;52.502;13.426;2022-12-16T05:47:08;100784.38;;;-5.52;100.00
56928;BME280;60850;52.502;13.426;2022-12-16T05:49:53;100778.56;;;-5.46;100.00
56928;BME280;60850;52.502;13.426;2022-12-16T05:52:37;100784.72;;;-5.43;100.00
56928;BME280;60850;52.502;13.426;2022-12-16T05:55:22;100796.25;;;-5.36;100.00
56928;BME280;60850;52.502;13.426;2022-12-16T05:58:07;100793.00;;;-5.31;100.00
56928;BME280;60850;52.502;13.426;2022-12-16T06:00:52;100803.28;;;-5.34;100.00
56928;BME280;60850;52.502;13.426;2022-12-16T06:03:37;100803.53;;;-5.28;100.00
56928;BME280;60850;52.502;13.426;2022-12-16T06:06:21;100810.50;;;-5.27;100.00
56928;BME280;60850;52.502;13.426;2022-12-16T06:09:06;100814.84;;;-5.26;100.00
56928;BME280;60850;52.502;13.426;2022-12-16T06:11:50;100828.72;;;-5.25;100.00
56928;BME280;60850;52.502;13.426;2022-12-16T06:14:35;100820.53;;;-5.13;100.00
56928;BME280;60850;52.502;13.426;2022-12-16T06:17:21;100828.94;;;-4.97;100.00
56928;BME280;60850;52.502;13.426;2022-12-16T06:20:06;100839.34;;;-4.97;100.00
56928;BME280;60850;52.502;13.426;2022-12-16T06:22:51;100842.66;;;-5.01;100.00
56928;BME280;60850;52.502;13.426;2022-12-16T06:25:36;100845.25;;;-5.01;100.00
56928;BME280;60850;52.502;13.426;2022-12-16T06:28:20;100852.69;;;-5.10;100.00
56928;BME280;60850;52.502;13.426;2022-12-16T06:31:07;100852.06;;;-5.04;100.00
56928;BME280;60850;52.502;13.426;2022-12-16T06:33:53;100853.72;;;-5.06;100.00
56928;BME280;60850;52.502;13.426;2022-12-16T06:36:37;100856.38;;;-5.05;100.00
56928;BME280;60850;52.502;13.426;2022-12-16T06:39:22;100855.50;;;-5.05;100.00
56928;BME280;60850;52.502;13.426;2022-12-16T06:42:06;100864.34;;;-5.00;100.00
56928;BME280;60850;52.502;13.426;2022-12-16T06:44:51;100864.22;;;-5.03;100.00
56928;BME280;60850;52.502;13.426;2022-12-16T06:47:37;100869.13;;;-5.11;100.00
56928;BME280;60850;52.502;13.426;2022-12-16T06:50:29;100875.22;;;-5.10;100.00
56928;BME280;60850;52.502;13.426;2022-12-16T06:53:25;100876.09;;;-5.10;100.00
56928;BME280;60850;52.502;13.426;2022-12-16T06:56:09;100870.94;;;-5.08;100.00
56928;BME280;60850;52.502;13.426;2022-12-16T06:58:53;100885.75;;;-5.07;100.00
56928;BME280;60850;52.502;13.426;2022-12-16T07:01:38;100885.78;;;-5.06;100.00
56928;BME280;60850;52.502;13.426;2022-12-16T07:04:22;100889.56;;;-4.98;100.00
56928;BME280;60850;52.502;13.426;2022-12-16T07:07:08;100891.44;;;-4.93;100.00
56928;BME280;60850;52.502;13.426;2022-12-16T07:09:53;100895.00;;;-4.91;100.00
56928;BME280;60850;52.502;13.426;2022-12-16T07:12:38;100886.56;;;-4.86;100.00
56928;BME280;60850;52.502;13.426;2022-12-16T07:15:23;100902.31;;;-4.81;100.00
56928;BME280;60850;52.502;13.426;2022-12-16T07:18:07;100907.56;;;-4.80;100.00
56928;BME280;60850;52.502;13.426;2022-12-16T07:20:52;100916.16;;;-4.82;100.00
56928;BME280;60850;52.502;13.426;2022-12-16T07:23:37;100918.09;;;-4.77;100.00
56928;BME280;60850;52.502;13.426;2022-12-16T07:26:22;100930.47;;;-4.71;100.00
56928;BME280;60850;52.502;13.426;2022-12-16T07:29:06;100928.25;;;-4.60;100.00
56928;BME280;60850;52.502;13.426;2022-12-16T07:31:51;100935.44;;;-4.53;100.00
56928;BME280;60850;52.502;13.426;2022-12-16T07:34:36;100940.09;;;-4.45;100.00
56928;BME280;60850;52.502;13.426;2022-12-16T07:37:20;100945.66;;;-4.35;100.00
56928;BME280;60850;52.502;13.426;2022-12-16T07:40:07;100953.75;;;-4.28;100.00
56928;BME280;60850;52.502;13.426;2022-12-16T07:42:51;100952.88;;;-4.28;100.00
56928;BME280;60850;52.502;13.426;2022-12-16T07:45:36;100961.06;;;-4.18;100.00
56928;BME280;60850;52.502;13.426;2022-12-16T07:48:20;100964.66;;;-4.14;100.00
56928;BME280;60850;52.502;13.426;2022-12-16T07:51:04;100967.59;;;-4.05;100.00
56928;BME280;60850;52.502;13.426;2022-12-16T07:53:49;100962.00;;;-3.92;100.00
56928;BME280;60850;52.502;13.426;2022-12-16T07:56:34;100973.69;;;-3.80;100.00
56928;BME280;60850;52.502;13.426;2022-12-16T07:59:19;100979.28;;;-3.68;100.00
56928;BME280;60850;52.502;13.426;2022-12-16T08:02:03;100979.72;;;-3.56;100.00
56928;BME280;60850;52.502;13.426;2022-12-16T08:04:47;100988.59;;;-3.51;100.00
56928;BME280;60850;52.502;13.426;2022-12-16T08:07:31;100993.13;;;-3.45;100.00
56928;BME280;60850;52.502;13.426;2022-12-16T08:10:16;100996.56;;;-3.46;100.00
56928;BME280;60850;52.502;13.426;2022-12-16T08:13:02;100992.22;;;-3.46;100.00
56928;BME280;60850;52.502;13.426;2022-12-16T08:15:47;100995.63;;;-3.48;100.00
56928;BME280;60850;52.502;13.426;2022-12-16T08:18:32;100999.94;;;-3.49;100.00
56928;BME280;60850;52.502;13.426;2022-12-16T08:21:16;101000.00;;;-3.47;100.00
56928;BME280;60850;52.502;13.426;2022-12-16T08:24:00;101002.34;;;-3.55;100.00
56928;BME280;60850;52.502;13.426;2022-12-16T08:26:45;101003.44;;;-3.48;100.00
56928;BME280;60850;52.502;13.426;2022-12-16T08:29:31;101009.13;;;-3.09;100.00
56928;BME280;60850;52.502;13.426;2022-12-16T08:32:15;101007.88;;;-1.76;100.00
56928;BME280;60850;52.502;13.426;2022-12-16T08:35:00;101000.59;;;-0.10;100.00
56928;BME280;60850;52.502;13.426;2022-12-16T08:37:45;101007.78;;;0.94;100.00
56928;BME280;60850;52.502;13.426;2022-12-16T08:40:29;101009.72;;;0.55;100.00
56928;BME280;60850;52.502;13.426;2022-12-16T08:43:14;100998.00;;;-0.09;99.95
56928;BME280;60850;52.502;13.426;2022-12-16T08:46:00;101002.59;;;-0.39;100.00
56928;BME280;60850;52.502;13.426;2022-12-16T08:48:45;101002.13;;;-0.59;100.00
56928;BME280;60850;52.502;13.426;2022-12-16T08:51:29;100995.66;;;-0.75;100.00
56928;BME280;60850;52.502;13.426;2022-12-16T08:54:14;101015.72;;;-0.75;100.00
56928;BME280;60850;52.502;13.426;2022-12-16T08:56:59;101013.47;;;-0.60;100.00
56928;BME280;60850;52.502;13.426;2022-12-16T08:59:44;101016.31;;;-0.49;100.00
56928;BME280;60850;52.502;13.426;2022-12-16T09:02:30;101012.78;;;-0.51;100.00
56928;BME280;60850;52.502;13.426;2022-12-16T09:05:17;101019.13;;;-0.42;100.00
56928;BME280;60850;52.502;13.426;2022-12-16T09:08:02;101012.06;;;-0.44;100.00
56928;BME280;60850;52.502;13.426;2022-12-16T09:10:47;101012.72;;;-0.54;100.00
56928;BME280;60850;52.502;13.426;2022-12-16T09:13:32;101016.25;;;-0.52;100.00
56928;BME280;60850;52.502;13.426;2022-12-16T09:16:16;101026.03;;;-0.44;100.00
56928;BME280;60850;52.502;13.426;2022-12-16T09:19:01;101029.63;;;-0.40;100.00
56928;BME280;60850;52.502;13.426;2022-12-16T09:21:45;101027.31;;;-0.26;100.00
56928;BME280;60850;52.502;13.426;2022-12-16T09:24:29;101035.22;;;-0.23;100.00
56928;BME280;60850;52.502;13.426;2022-12-16T09:27:14;101040.06;;;-0.42;100.00
56928;BME280;60850;52.502;13.426;2022-12-16T09:29:58;101022.09;;;-0.25;100.00
56928;BME280;60850;52.502;13.426;2022-12-16T09:32:44;101024.94;;;-0.14;100.00
56928;BME280;60850;52.502;13.426;2022-12-16T09:35:30;101039.78;;;-0.15;100.00
56928;BME280;60850;52.502;13.426;2022-12-16T09:38:15;101032.06;;;-0.07;100.00
56928;BME280;60850;52.502;13.426;2022-12-16T09:41:19;101040.13;;;0.01;100.00
56928;BME280;60850;52.502;13.426;2022-12-16T09:44:11;101043.78;;;0.09;100.00
56928;BME280;60850;52.502;13.426;2022-12-16T09:47:06;101034.75;;;-0.06;98.66
56928;BME280;60850;52.502;13.426;2022-12-16T09:49:54;101033.00;;;-0.07;100.00
56928;BME280;60850;52.502;13.426;2022-12-16T09:52:40;101029.59;;;-0.01;100.00
56928;BME280;60850;52.502;13.426;2022-12-16T09:55:29;101031.72;;;0.17;100.00
56928;BME280;60850;52.502;13.426;2022-12-16T09:58:17;101028.56;;;0.35;100.00
56928;BME280;60850;52.502;13.426;2022-12-16T10:01:04;101034.81;;;0.41;100.00
56928;BME280;60850;52.502;13.426;2022-12-16T10:03:49;101027.16;;;0.50;98.46
56928;BME280;60850;52.502;13.426;2022-12-16T10:06:38;101029.03;;;0.58;98.96
56928;BME280;60850;52.502;13.426;2022-12-16T10:09:29;101031.84;;;0.70;100.00
56928;BME280;60850;52.502;13.426;2022-12-16T10:12:22;101032.09;;;0.82;99.12
56928;BME280;60850;52.502;13.426;2022-12-16T10:15:20;101019.22;;;0.97;98.25
56928;BME280;60850;52.502;13.426;2022-12-16T10:18:21;101021.91;;;1.00;94.68
56928;BME280;60850;52.502;13.426;2022-12-16T10:21:12;101020.34;;;0.63;95.33
56928;BME280;60850;52.502;13.426;2022-12-16T10:24:05;101014.66;;;0.39;97.36
56928;BME280;60850;52.502;13.426;2022-12-16T10:26:56;101013.13;;;0.06;99.15
56928;BME280;60850;52.502;13.426;2022-12-16T10:29:45;101014.66;;;-0.07;100.00
56928;BME280;60850;52.502;13.426;2022-12-16T10:32:31;101015.56;;;-0.05;100.00
56928;BME280;60850;52.502;13.426;2022-12-16T10:35:19;101021.97;;;0.10;100.00
56928;BME280;60850;52.502;13.426;2022-12-16T10:38:08;101024.75;;;0.19;100.00
56928;BME280;60850;52.502;13.426;2022-12-16T10:40:59;101012.88;;;0.36;100.00
56928;BME280;60850;52.502;13.426;2022-12-16T10:43:46;101019.41;;;0.58;100.00
56928;BME280;60850;52.502;13.426;2022-12-16T10:46:33;101032.03;;;0.79;100.00
56928;BME280;60850;52.502;13.426;2022-12-16T10:49:18;101036.72;;;0.98;100.00
56928;BME280;60850;52.502;13.426;2022-12-16T10:52:04;101029.88;;;1.06;98.89
56928;BME280;60850;52.502;13.426;2022-12-16T10:54:56;101034.41;;;1.17;98.42
56928;BME280;60850;52.502;13.426;2022-12-16T10:57:50;101038.06;;;1.25;97.70
56928;BME280;60850;52.502;13.426;2022-12-16T11:00:51;101037.34;;;1.35;96.64
56928;BME280;60850;52.502;13.426;2022-12-16T11:03:37;101043.53;;;1.40;95.08
56928;BME280;60850;52.502;13.426;2022-12-16T11:06:25;101042.63;;;1.36;96.46
56928;BME280;60850;52.502;13.426;2022-12-16T11:09:19;101045.16;;;1.32;96.35
56928;BME280;60850;52.502;13.426;2022-12-16T11:12:20;101046.13;;;1.37;97.25
56928;BME280;60850;52.502;13.426;2022-12-16T11:15:20;101054.13;;;1.45;96.90
56928;BME280;60850;52.502;13.426;2022-12-16T11:18:09;101055.97;;;1.50;97.58
56928;BME280;60850;52.502;13.426;2022-12-16T11:21:18;101054.13;;;1.43;97.12
56928;BME280;60850;52.502;13.426;2022-12-16T11:24:11;101049.56;;;1.33;96.63
56928;BME280;60850;52.502;13.426;2022-12-16T11:26:57;101046.16;;;1.38;98.36
56928;BME280;60850;52.502;13.426;2022-12-16T11:29:49;101045.22;;;1.35;98.10
56928;BME280;60850;52.502;13.426;2022-12-16T11:32:34;101055.75;;;1.36;98.51
56928;BME280;60850;52.502;13.426;2022-12-16T11:35:25;101052.38;;;1.44;99.62
56928;BME280;60850;52.502;13.426;2022-12-16T11:38:17;101048.78;;;1.40;99.66
56928;BME280;60850;52.502;13.426;2022-12-16T11:41:04;101063.72;;;1.41;99.24
56928;BME280;60850;52.502;13.426;2022-12-16T11:43:51;101063.75;;;1.44;99.62
56928;BME280;60850;52.502;13.426;2022-12-16T11:46:37;101057.53;;;1.37;99.28
56928;BME280;60850;52.502;13.426;2022-12-16T11:49:36;101064.47;;;1.34;100.00
56928;BME280;60850;52.502;13.426;2022-12-16T11:52:22;101068.91;;;1.38;100.00
56928;BME280;60850;52.502;13.426;2022-12-16T11:55:16;101062.91;;;1.45;100.00
56928;BME280;60850;52.502;13.426;2022-12-16T11:58:08;101056.72;;;1.42;99.97
56928;BME280;60850;52.502;13.426;2022-12-16T12:01:00;101064.63;;;1.45;100.00
56928;BME280;60850;52.502;13.426;2022-12-16T12:03:48;101062.09;;;1.49;100.00
56928;BME280;60850;52.502;13.426;2022-12-16T12:06:46;101061.16;;;1.47;100.00
56928;BME280;60850;52.502;13.426;2022-12-16T12:09:37;101058.53;;;1.46;100.00
56928;BME280;60850;52.502;13.426;2022-12-16T12:12:29;101068.22;;;1.50;100.00
56928;BME280;60850;52.502;13.426;2022-12-16T12:15:18;101071.75;;;1.52;100.00
56928;BME280;60850;52.502;13.426;2022-12-16T12:18:14;101062.19;;;1.55;100.00
56928;BME280;60850;52.502;13.426;2022-12-16T12:21:06;101066.59;;;1.56;100.00
56928;BME280;60850;52.502;13.426;2022-12-16T12:24:02;101070.91;;;1.54;100.00
56928;BME280;60850;52.502;13.426;2022-12-16T12:26:55;101069.13;;;1.50;100.00
56928;BME280;60850;52.502;13.426;2022-12-16T12:29:50;101076.91;;;1.46;100.00
56928;BME280;60850;52.502;13.426;2022-12-16T12:32:45;101083.94;;;1.47;100.00
56928;BME280;60850;52.502;13.426;2022-12-16T12:35:43;101090.13;;;1.50;100.00
56928;BME280;60850;52.502;13.426;2022-12-16T12:38:37;101091.94;;;1.54;100.00
56928;BME280;60850;52.502;13.426;2022-12-16T12:41:26;101082.38;;;1.59;100.00
56928;BME280;60850;52.502;13.426;2022-12-16T12:44:20;101086.66;;;1.54;100.00
56928;BME280;60850;52.502;13.426;2022-12-16T12:47:09;101093.72;;;1.55;100.00
56928;BME280;60850;52.502;13.426;2022-12-16T12:49:58;101094.53;;;1.53;100.00
56928;BME280;60850;52.502;13.426;2022-12-16T12:52:59;101094.53;;;1.51;100.00
56928;BME280;60850;52.502;13.426;2022-12-16T12:55:56;101091.88;;;1.51;100.00
56928;BME280;60850;52.502;13.426;2022-12-16T12:58:44;101090.13;;;1.50;100.00
56928;BME280;60850;52.502;13.426;2022-12-16T13:01:31;101090.06;;;1.47;100.00
56928;BME280;60850;52.502;13.426;2022-12-16T13:04:22;101101.19;;;1.31;100.00
56928;BME280;60850;52.502;13.426;2022-12-16T13:07:07;101105.53;;;1.29;100.00
56928;BME280;60850;52.502;13.426;2022-12-16T13:10:11;101110.84;;;1.32;100.00
56928;BME280;60850;52.502;13.426;2022-12-16T13:13:28;101119.66;;;1.34;100.00
56928;BME280;60850;52.502;13.426;2022-12-16T13:16:56;101123.09;;;1.31;100.00
56928;BME280;60850;52.502;13.426;2022-12-16T13:19:44;101124.59;;;1.19;100.00
56928;BME280;60850;52.502;13.426;2022-12-16T13:22:37;101122.91;;;1.21;100.00
56928;BME280;60850;52.502;13.426;2022-12-16T13:25:33;101128.91;;;1.14;100.00
56928;BME280;60850;52.502;13.426;2022-12-16T13:28:23;101131.56;;;1.17;100.00
56928;BME280;60850;52.502;13.426;2022-12-16T13:31:14;101133.06;;;1.02;100.00
56928;BME280;60850;52.502;13.426;2022-12-16T13:34:05;101134.38;;;0.79;100.00
56928;BME280;60850;52.502;13.426;2022-12-16T13:36:54;101141.31;;;0.77;100.00
56928;BME280;60850;52.502;13.426;2022-12-16T13:39:41;101141.28;;;0.75;100.00
56928;BME280;60850;52.502;13.426;2022-12-16T13:42:50;101149.03;;;0.69;100.00
56928;BME280;60850;52.502;13.426;2022-12-16T13:45:38;101143.72;;;0.65;100.00
56928;BME280;60850;52.502;13.426;2022-12-16T13:48:32;101152.59;;;0.71;100.00
56928;BME280;60850;52.502;13.426;2022-12-16T13:54:58;101154.28;;;0.68;100.00
56928;BME280;60850;52.502;13.426;2022-12-16T13:57:47;101164.94;;;0.35;100.00